Time;durP1;ratioP1;P1;durP2;ratioP2;P2;SDS_P1;SDS_P2;PMS_P1;PMS_P2;Temp;Humidity;BMP_temperature;BMP_pressure;BME280_temperature;BME280_humidity;BME280_pressure;Samples;Min_cycle;Max_cycle;Signal;HPM_P1;HPM_P2
2024/01/21 00:01:14;;;;;;;9.10;7.20;;;;;;;1.41;49.88;102304.38;5006443;28;20037;-61
2024/01/21 00:03:39;;;;;;;10.10;7.90;;;;;;;1.45;50.32;102293.97;5006031;28;20034;-60
2024/01/21 00:06:05;;;;;;;11.30;7.78;;;;;;;1.41;49.87;102300.78;5004850;28;20040;-61
2024/01/21 00:08:30;;;;;;;9.90;7.55;;;;;;;1.42;49.93;102289.69;5006224;28;20033;-60
2024/01/21 00:10:55;;;;;;;11.60;8.18;;;;;;;1.40;50.14;102285.38;5004863;28;20022;-60
2024/01/21 00:13:21;;;;;;;10.65;8.23;;;;;;;1.40;49.52;102285.38;5003974;28;20057;-60
2024/01/21 00:15:49;;;;;;;10.05;8.18;;;;;;;1.39;50.21;102278.19;4997948;28;20042;-60
2024/01/21 00:18:15;;;;;;;10.73;7.90;;;;;;;1.40;49.86;102277.16;4989411;28;20089;-60
2024/01/21 00:20:41;;;;;;;9.10;7.53;;;;;;;1.37;49.61;102270.13;5006427;28;20038;-60
2024/01/21 00:23:06;;;;;;;11.15;8.00;;;;;;;1.39;50.00;102273.59;5004901;28;20100;-60
2024/01/21 00:25:32;;;;;;;10.60;8.18;;;;;;;1.38;50.42;102276.50;5006075;28;20032;-60
2024/01/21 00:27:57;;;;;;;12.63;8.40;;;;;;;1.36;50.25;102268.41;5012704;28;20034;-60
2024/01/21 00:30:26;;;;;;;11.82;8.02;;;;;;;1.39;50.41;102272.72;5007493;28;20112;-61
2024/01/21 00:32:51;;;;;;;10.48;8.20;;;;;;;1.40;50.13;102252.56;5002766;28;20031;-60
2024/01/21 00:35:17;;;;;;;11.55;8.57;;;;;;;1.39;50.75;102251.69;4995884;28;20151;-60
2024/01/21 00:37:45;;;;;;;10.50;8.63;;;;;;;1.38;50.88;102249.97;5005980;28;20038;-61
2024/01/21 00:40:10;;;;;;;12.35;8.80;;;;;;;1.38;50.13;102249.13;5004393;28;20059;-60
2024/01/21 00:42:36;;;;;;;13.05;8.93;;;;;;;1.37;50.52;102242.78;5013175;28;20034;-60
2024/01/21 00:45:02;;;;;;;13.93;9.32;;;;;;;1.38;50.31;102258.19;5018775;28;20056;-60
2024/01/21 00:47:28;;;;;;;11.63;8.30;;;;;;;1.33;50.01;102240.53;5015272;28;20029;-60
2024/01/21 00:49:53;;;;;;;12.80;8.90;;;;;;;1.38;50.65;102249.13;5015613;28;20080;-61
2024/01/21 00:52:18;;;;;;;12.18;9.27;;;;;;;1.38;50.55;102255.47;5009595;28;20043;-60
2024/01/21 00:54:44;;;;;;;11.10;8.75;;;;;;;1.36;50.94;102249.28;5019459;28;20021;-60
2024/01/21 00:57:09;;;;;;;12.68;9.18;;;;;;;1.35;49.92;102249.44;5019512;28;20141;-60
2024/01/21 00:59:34;;;;;;;11.88;8.30;;;;;;;1.38;50.66;102249.13;5024076;28;20032;-60
2024/01/21 01:02:00;;;;;;;11.75;9.10;;;;;;;1.33;49.99;102241.38;4997602;28;20481;-60
2024/01/21 01:04:25;;;;;;;13.68;9.80;;;;;;;1.32;51.04;102234.19;4989152;28;20032;-60
2024/01/21 01:06:50;;;;;;;14.00;10.07;;;;;;;1.33;51.15;102221.38;4993741;28;20522;-60
2024/01/21 01:09:15;;;;;;;17.88;11.52;;;;;;;1.32;50.41;102216.94;5007654;28;20029;-60
2024/01/21 01:11:41;;;;;;;18.70;13.50;;;;;;;1.31;50.91;102207.88;5008279;28;20079;-60
2024/01/21 01:14:06;;;;;;;28.55;20.23;;;;;;;1.33;51.12;102215.91;5008398;28;20743;-60
2024/01/21 01:16:39;;;;;;;35.92;26.02;;;;;;;1.33;51.16;102207.69;5033906;28;20114;-60
2024/01/21 01:19:06;;;;;;;34.17;23.30;;;;;;;1.31;50.25;102199.66;5008289;28;20037;-60
2024/01/21 01:21:31;;;;;;;24.45;19.45;;;;;;;1.30;50.66;102202.53;5008438;28;20101;-60
2024/01/21 01:23:57;;;;;;;23.60;16.05;;;;;;;1.30;50.83;102183.38;5007840;28;20105;-60
2024/01/21 01:26:22;;;;;;;29.00;16.25;;;;;;;1.27;50.32;102178.25;5008194;28;20065;-60
2024/01/21 01:28:48;;;;;;;17.45;11.18;;;;;;;1.29;50.04;102171.59;5008003;28;20030;-60
2024/01/21 01:31:31;;;;;;;16.02;11.40;;;;;;;1.31;51.02;102171.44;5007712;28;20083;-60
2024/01/21 01:33:56;;;;;;;19.13;12.57;;;;;;;1.26;50.15;102157.38;5008898;28;20547;-61
2024/01/21 01:36:21;;;;;;;24.15;16.48;;;;;;;1.29;50.04;102162.53;5012823;28;20026;-60
2024/01/21 01:38:47;;;;;;;21.67;14.32;;;;;;;1.26;50.23;102155.53;5012206;28;20036;-60
2024/01/21 01:41:12;;;;;;;18.95;12.75;;;;;;;1.25;49.81;102147.47;5024392;28;20070;-61
2024/01/21 01:43:37;;;;;;;17.15;11.55;;;;;;;1.27;49.70;102140.81;5027085;28;20045;-60
2024/01/21 01:46:04;;;;;;;25.88;15.98;;;;;;;1.27;49.74;102142.69;5020662;28;20118;-60
2024/01/21 01:48:30;;;;;;;37.40;20.65;;;;;;;1.26;49.62;102125.44;5016014;28;20057;-60
2024/01/21 01:50:58;;;;;;;25.00;15.30;;;;;;;1.27;49.63;102120.81;5070665;28;20034;-60
2024/01/21 01:53:24;;;;;;;19.00;14.15;;;;;;;1.28;49.72;102114.31;5006636;28;20031;-60
2024/01/21 01:55:50;;;;;;;18.80;13.77;;;;;;;1.27;50.01;102118.94;5000713;28;20030;-60
2024/01/21 01:58:18;;;;;;;13.57;10.23;;;;;;;1.27;50.26;102115.34;5010097;28;20041;-61
2024/01/21 02:00:44;;;;;;;11.13;9.13;;;;;;;1.28;49.63;102123.38;5009972;28;20109;-60
2024/01/21 02:03:09;;;;;;;9.63;7.88;;;;;;;1.29;49.38;102116.03;5009886;28;20125;-60
2024/01/21 02:05:34;;;;;;;8.93;7.53;;;;;;;1.29;48.91;102108.69;5035774;28;20103;-60
2024/01/21 02:08:00;;;;;;;10.27;7.45;;;;;;;1.29;49.00;102108.69;5027763;28;20039;-60
2024/01/21 02:10:28;;;;;;;10.63;7.65;;;;;;;1.27;48.54;102096.19;5011279;28;20120;-60
2024/01/21 02:12:53;;;;;;;9.27;6.97;;;;;;;1.28;49.07;102089.72;5010500;28;20041;-60
2024/01/21 02:15:19;;;;;;;11.77;7.72;;;;;;;1.25;49.20;102087.28;5011484;28;20022;-60
2024/01/21 02:17:44;;;;;;;8.10;6.90;;;;;;;1.25;48.91;102079.09;5010744;28;20030;-61
2024/01/21 02:20:10;;;;;;;9.02;6.75;;;;;;;1.24;49.05;102078.22;5015273;28;20030;-61
2024/01/21 02:22:39;;;;;;;6.65;5.90;;;;;;;1.21;48.33;102081.28;5030983;28;20038;-60
2024/01/21 02:25:04;;;;;;;9.90;6.65;;;;;;;1.20;48.81;102085.91;5042532;28;20069;-60
2024/01/21 02:27:30;;;;;;;7.68;6.43;;;;;;;1.19;48.12;102069.66;5046132;28;20029;-60
2024/01/21 02:29:55;;;;;;;7.95;6.05;;;;;;;1.18;48.88;102062.50;5011119;28;20044;-60
2024/01/21 02:32:20;;;;;;;8.38;6.30;;;;;;;1.16;48.60;102065.38;5009736;28;20026;-60
2024/01/21 02:34:45;;;;;;;7.13;6.15;;;;;;;1.18;48.25;102048.81;5020228;28;20030;-60
2024/01/21 02:37:11;;;;;;;7.53;5.97;;;;;;;1.21;48.62;102060.25;5048895;28;20807;-61
2024/01/21 02:39:36;;;;;;;9.10;5.88;;;;;;;1.22;48.76;102047.47;5009881;28;20052;-60
2024/01/21 02:42:02;;;;;;;8.27;6.35;;;;;;;1.23;48.04;102043.69;5011091;28;20419;-61
2024/01/21 02:44:27;;;;;;;6.85;5.57;;;;;;;1.23;48.43;102036.34;5025722;28;20052;-61
2024/01/21 02:46:52;;;;;;;6.53;5.80;;;;;;;1.22;48.06;102025.59;5013142;28;20031;-60
2024/01/21 02:49:17;;;;;;;6.57;5.40;;;;;;;1.23;48.93;102027.28;5018790;28;20132;-60
2024/01/21 02:51:43;;;;;;;9.10;6.38;;;;;;;1.23;49.21;102040.97;5010154;28;20071;-60
2024/01/21 02:54:08;;;;;;;8.07;6.53;;;;;;;1.20;48.24;102039.41;5010085;28;20108;-60
2024/01/21 02:56:33;;;;;;;8.07;6.38;;;;;;;1.23;48.23;102041.81;5009393;28;20034;-60
2024/01/21 02:58:59;;;;;;;8.57;6.18;;;;;;;1.21;48.28;102041.09;5010532;28;20022;-60
2024/01/21 03:01:24;;;;;;;7.60;5.70;;;;;;;1.21;49.17;102030.16;5014090;28;20036;-60
2024/01/21 03:03:50;;;;;;;9.27;5.97;;;;;;;1.23;48.74;102033.63;5019959;28;20112;-60
2024/01/21 03:06:16;;;;;;;9.25;6.55;;;;;;;1.24;48.35;102034.47;5003345;28;20075;-60
2024/01/21 03:08:41;;;;;;;8.02;6.10;;;;;;;1.27;49.42;102019.63;5002956;28;20033;-60
2024/01/21 03:11:07;;;;;;;8.30;5.80;;;;;;;1.30;48.72;102011.06;5009756;28;20026;-60
2024/01/21 03:13:32;;;;;;;9.45;5.78;;;;;;;1.30;48.66;102005.59;5010222;28;20048;-60
2024/01/21 03:15:57;;;;;;;9.25;5.18;;;;;;;1.33;49.28;102005.28;5010386;28;20121;-60
2024/01/21 03:18:23;;;;;;;8.32;5.78;;;;;;;1.30;48.25;102000.13;5010435;28;20026;-60
2024/01/21 03:20:48;;;;;;;7.18;5.53;;;;;;;1.30;48.38;101992.81;5010316;28;20022;-60
2024/01/21 03:23:14;;;;;;;6.22;5.47;;;;;;;1.32;49.14;102001.69;5007475;28;20516;-60
2024/01/21 03:25:39;;;;;;;7.63;5.63;;;;;;;1.31;48.36;101996.41;5027657;28;20026;-60
2024/01/21 03:28:05;;;;;;;6.65;5.53;;;;;;;1.31;49.07;102004.59;5023743;28;20053;-61
2024/01/21 03:30:30;;;;;;;5.53;4.88;;;;;;;1.31;49.41;102008.19;5001278;28;20397;-60
2024/01/21 03:32:55;;;;;;;7.18;5.47;;;;;;;1.32;49.38;102001.69;5030087;28;20418;-60
2024/01/21 03:35:21;;;;;;;7.13;5.82;;;;;;;1.34;49.29;101991.44;5029101;28;20056;-60
2024/01/21 03:37:46;;;;;;;7.32;5.63;;;;;;;1.34;49.06;101993.34;5010545;28;20831;-60
2024/01/21 03:40:12;;;;;;;8.15;5.55;;;;;;;1.34;49.06;101994.19;5010461;28;20036;-60
2024/01/21 03:42:37;;;;;;;9.07;5.95;;;;;;;1.31;48.97;101993.66;5024233;28;20873;-60
2024/01/21 03:45:02;;;;;;;7.20;5.57;;;;;;;1.29;49.40;101982.00;5011843;28;20061;-60
2024/01/21 03:47:28;;;;;;;7.15;5.78;;;;;;;1.31;49.07;101986.31;5009782;28;20036;-60
2024/01/21 03:49:53;;;;;;;10.10;5.60;;;;;;;1.28;49.26;101977.56;5009222;28;20066;-60
2024/01/21 03:52:19;;;;;;;7.43;5.50;;;;;;;1.29;49.46;101984.75;5009595;28;20034;-60
2024/01/21 03:54:45;;;;;;;7.03;5.55;;;;;;;1.33;50.52;101983.38;5009746;28;20049;-60
2024/01/21 03:57:10;;;;;;;7.97;5.82;;;;;;;1.34;49.88;101979.66;5011046;28;20060;-60
2024/01/21 03:59:35;;;;;;;6.32;5.45;;;;;;;1.35;49.88;101957.59;5035081;28;20023;-60
2024/01/21 04:02:01;;;;;;;8.55;5.88;;;;;;;1.33;49.88;101948.69;5029542;28;20043;-60
2024/01/21 04:04:26;;;;;;;9.38;5.55;;;;;;;1.29;49.95;101950.03;5071855;28;20028;-60
2024/01/21 04:06:52;;;;;;;7.93;5.80;;;;;;;1.29;49.86;101949.19;5038848;28;20030;-60
2024/01/21 04:09:22;;;;;;;6.88;6.18;;;;;;;1.31;50.77;101941.69;5024669;28;20025;-60
2024/01/21 04:11:48;;;;;;;8.07;6.28;;;;;;;1.32;50.25;101932.44;5014004;28;20162;-61
2024/01/21 04:14:13;;;;;;;8.07;6.00;;;;;;;1.33;50.51;101937.75;5015710;28;20038;-60
2024/01/21 04:16:39;;;;;;;7.55;6.07;;;;;;;1.31;50.57;101934.34;5082376;28;20123;-60
2024/01/21 04:19:04;;;;;;;9.15;6.55;;;;;;;1.28;50.65;101939.28;5046005;28;20018;-60
2024/01/21 04:21:32;;;;;;;6.93;6.10;;;;;;;1.28;50.35;101940.13;5023179;28;20139;-60
2024/01/21 04:23:57;;;;;;;6.93;5.63;;;;;;;1.26;50.97;101949.50;5012506;28;20049;-60
2024/01/21 04:26:23;;;;;;;7.35;5.88;;;;;;;1.23;50.63;101940.63;5026591;28;20128;-60
2024/01/21 04:28:48;;;;;;;8.93;6.18;;;;;;;1.28;51.47;101942.88;5031497;28;20038;-60
2024/01/21 04:31:13;;;;;;;8.65;6.18;;;;;;;1.30;50.84;101934.47;5014520;28;20117;-60
2024/01/21 04:33:38;;;;;;;8.00;6.25;;;;;;;1.32;50.92;101943.38;5012655;28;20069;-61
2024/01/21 04:36:04;;;;;;;8.18;5.88;;;;;;;1.26;50.96;101927.63;5015227;28;20029;-60
2024/01/21 04:38:30;;;;;;;8.57;6.57;;;;;;;1.29;51.56;101924.56;5014645;28;20052;-61
2024/01/21 04:40:55;;;;;;;7.78;6.30;;;;;;;1.32;52.17;101910.56;5012424;28;20441;-60
2024/01/21 04:43:20;;;;;;;8.70;6.20;;;;;;;1.36;51.91;101890.06;5018963;28;20073;-60
2024/01/21 04:45:45;;;;;;;9.02;6.65;;;;;;;1.41;51.82;101871.25;5018443;28;20057;-61
2024/01/21 04:48:11;;;;;;;8.70;6.47;;;;;;;1.42;51.51;101867.53;5022235;28;20026;-60
2024/01/21 04:50:36;;;;;;;9.68;6.70;;;;;;;1.40;50.76;101872.28;5033336;28;20105;-60
2024/01/21 04:53:01;;;;;;;9.70;7.03;;;;;;;1.39;51.17;101849.56;5003759;28;20385;-60
2024/01/21 04:55:27;;;;;;;8.73;6.60;;;;;;;1.38;51.73;101844.25;5011318;28;20436;-60
2024/01/21 04:57:52;;;;;;;9.25;7.00;;;;;;;1.40;52.17;101848.53;5005458;28;20034;-60
2024/01/21 05:00:17;;;;;;;8.95;6.63;;;;;;;1.43;52.03;101844.59;5001113;28;20022;-60
2024/01/21 05:02:43;;;;;;;11.40;7.30;;;;;;;1.42;51.32;101835.53;5008235;28;20511;-60
2024/01/21 05:05:08;;;;;;;12.27;7.38;;;;;;;1.42;51.79;101821.88;5009321;28;20026;-60
2024/01/21 05:07:33;;;;;;;12.18;8.18;;;;;;;1.47;51.54;101838.63;5007418;28;20531;-60
2024/01/21 05:09:59;;;;;;;10.57;8.52;;;;;;;1.50;51.83;101842.91;5008642;28;20030;-60
2024/01/21 05:12:24;;;;;;;12.18;8.60;;;;;;;1.46;51.71;101852.47;5008227;28;20030;-60
2024/01/21 05:14:49;;;;;;;13.02;9.57;;;;;;;1.44;51.66;101854.50;5000270;28;20049;-60
2024/01/21 05:17:15;;;;;;;12.55;9.10;;;;;;;1.45;52.11;101848.91;5024789;28;20757;-60
2024/01/21 05:19:40;;;;;;;12.65;9.38;;;;;;;1.49;52.00;101863.06;5020642;28;20095;-60
2024/01/21 05:22:05;;;;;;;12.80;9.43;;;;;;;1.50;52.30;101864.78;5008267;28;20058;-60
2024/01/21 05:24:34;;;;;;;14.95;10.15;;;;;;;1.50;52.43;101867.53;5007949;28;20030;-60
2024/01/21 05:26:59;;;;;;;13.43;9.38;;;;;;;1.48;51.62;101862.22;5011517;28;20434;-60
2024/01/21 05:29:25;;;;;;;11.35;8.98;;;;;;;1.52;52.58;101829.91;4996717;28;20038;-60
2024/01/21 05:31:50;;;;;;;13.38;9.35;;;;;;;1.54;52.49;101832.47;5015461;28;20033;-60
2024/01/21 05:34:15;;;;;;;12.15;9.02;;;;;;;1.58;52.43;101834.72;5011489;28;20090;-60
2024/01/21 05:36:42;;;;;;;13.60;9.43;;;;;;;1.54;52.19;101837.97;5011098;28;20512;-60
2024/01/21 05:39:07;;;;;;;12.98;9.07;;;;;;;1.52;52.51;101834.53;5040071;28;20099;-60
2024/01/21 05:41:33;;;;;;;11.65;8.68;;;;;;;1.52;53.07;101862.72;5080567;27;20426;-60
2024/01/21 05:43:58;;;;;;;12.40;8.18;;;;;;;1.55;52.78;101837.78;5010503;28;20048;-60
2024/01/21 05:46:24;;;;;;;13.88;8.07;;;;;;;1.55;52.59;101834.19;5011291;28;20030;-60
2024/01/21 05:48:49;;;;;;;11.40;8.13;;;;;;;1.56;51.94;101836.75;5031111;28;20054;-60
2024/01/21 05:51:15;;;;;;;12.45;7.93;;;;;;;1.58;52.96;101839.31;5020751;28;20102;-60
2024/01/21 05:53:41;;;;;;;10.40;7.85;;;;;;;1.58;52.68;101829.22;5031501;28;20465;-60
2024/01/21 05:56:07;;;;;;;12.77;8.90;;;;;;;1.61;52.13;101830.75;5030352;28;20030;-60
2024/01/21 05:58:32;;;;;;;10.00;7.72;;;;;;;1.61;52.03;101833.50;5030738;28;20048;-60
2024/01/21 06:00:57;;;;;;;10.90;8.38;;;;;;;1.60;52.26;101826.31;5030829;28;20464;-60
2024/01/21 06:03:23;;;;;;;13.13;8.90;;;;;;;1.65;52.29;101830.25;5028481;28;20075;-60
2024/01/21 06:05:48;;;;;;;11.35;8.25;;;;;;;1.66;52.05;101826.50;5013696;28;20056;-60
2024/01/21 06:08:13;;;;;;;11.52;8.32;;;;;;;1.65;52.34;101819.31;5026426;28;20042;-60
2024/01/21 06:10:38;;;;;;;12.43;8.68;;;;;;;1.66;52.86;101820.16;5010484;28;20354;-60
2024/01/21 06:13:04;;;;;;;11.45;8.63;;;;;;;1.64;52.81;101817.59;5010955;28;20384;-60
2024/01/21 06:15:29;;;;;;;12.30;8.60;;;;;;;1.65;52.42;101813.84;5010752;28;20030;-59
2024/01/21 06:17:54;;;;;;;11.32;8.95;;;;;;;1.66;52.23;101821.03;5009006;28;20473;-60
2024/01/21 06:20:19;;;;;;;11.35;8.23;;;;;;;1.70;52.55;101838.81;5010734;28;20026;-60
2024/01/21 06:22:45;;;;;;;10.27;8.60;;;;;;;1.75;52.08;101826.50;5019555;28;20052;-59
2024/01/21 06:25:11;;;;;;;11.93;8.73;;;;;;;1.75;51.84;101845.66;5013363;28;20050;-59
2024/01/21 06:27:37;;;;;;;11.25;8.60;;;;;;;1.77;52.69;101846.31;5019630;28;20034;-60
2024/01/21 06:30:13;;;;;;;12.88;8.82;;;;;;;1.81;52.59;101837.63;5007913;28;20030;-60
2024/01/21 06:32:38;;;;;;;10.65;8.45;;;;;;;1.79;52.15;101850.59;5024355;28;20049;-60
2024/01/21 06:35:04;;;;;;;12.23;8.32;;;;;;;1.74;51.56;101841.22;5053512;28;20020;-59
2024/01/21 06:37:29;;;;;;;11.05;8.73;;;;;;;1.75;51.81;101840.19;5087961;28;20030;-60
2024/01/21 06:39:55;;;;;;;9.93;7.70;;;;;;;1.77;52.00;101838.09;5041177;28;20062;-60
2024/01/21 06:42:20;;;;;;;10.20;7.78;;;;;;;1.82;52.48;101843.94;5024663;28;20112;-59
2024/01/21 06:44:45;;;;;;;11.18;8.63;;;;;;;1.82;52.00;101835.72;5024724;28;20080;-60
2024/01/21 06:47:10;;;;;;;10.70;8.45;;;;;;;1.83;52.25;101840.19;5022923;28;20476;-59
2024/01/21 06:49:36;;;;;;;10.63;8.10;;;;;;;1.87;52.56;101844.28;5071825;28;20127;-60
2024/01/21 06:52:01;;;;;;;11.77;8.45;;;;;;;1.87;52.35;101844.28;5057326;28;20079;-60
2024/01/21 06:54:27;;;;;;;12.43;8.25;;;;;;;1.92;51.95;101842.72;5028449;28;20081;-60
2024/01/21 06:56:52;;;;;;;10.18;7.88;;;;;;;1.93;51.73;101857.28;5014650;28;20029;-59
2024/01/21 06:59:17;;;;;;;11.85;8.20;;;;;;;1.93;52.17;101844.47;5025425;28;20048;-59
2024/01/21 07:01:42;;;;;;;9.10;7.60;;;;;;;1.94;51.94;101857.09;5029738;28;20049;-58
2024/01/21 07:04:08;;;;;;;11.07;8.85;;;;;;;1.95;51.27;101838.78;5034498;28;20090;-60
2024/01/21 07:06:33;;;;;;;12.68;8.40;;;;;;;1.93;51.73;101827.19;5030190;28;20816;-59
2024/01/21 07:08:58;;;;;;;11.35;8.18;;;;;;;1.92;50.63;101829.03;5093341;27;20017;-59
2024/01/21 07:11:25;;;;;;;11.07;8.02;;;;;;;1.91;51.56;101808.16;5020172;28;20022;-60
2024/01/21 07:13:50;;;;;;;11.88;8.73;;;;;;;1.92;51.33;101798.06;5066881;28;20032;-60
2024/01/21 07:16:16;;;;;;;11.10;7.72;;;;;;;1.88;49.69;101786.59;5026336;28;20491;-60
2024/01/21 07:18:41;;;;;;;13.27;8.18;;;;;;;1.87;50.95;101800.47;5029424;28;20044;-60
2024/01/21 07:21:06;;;;;;;9.90;7.35;;;;;;;1.88;50.41;101794.81;5035393;28;20035;-60
2024/01/21 07:23:31;;;;;;;10.23;7.70;;;;;;;1.89;50.97;101806.66;5010402;28;20071;-60
2024/01/21 07:25:57;;;;;;;10.55;7.75;;;;;;;1.89;50.15;101792.97;5014613;28;20034;-60
2024/01/21 07:28:22;;;;;;;10.48;8.02;;;;;;;1.88;50.12;101799.44;5009437;28;20034;-60
2024/01/21 07:30:47;;;;;;;9.48;7.47;;;;;;;1.88;50.21;101802.19;5013728;28;20017;-60
2024/01/21 07:33:13;;;;;;;10.32;7.70;;;;;;;1.91;50.10;101788.16;5009261;28;20057;-60
2024/01/21 07:35:38;;;;;;;10.13;7.97;;;;;;;1.93;50.32;101797.06;5008789;28;20116;-59
2024/01/21 07:38:03;;;;;;;11.07;8.45;;;;;;;1.91;50.77;101785.41;5007715;28;20481;-59
2024/01/21 07:40:30;;;;;;;12.15;8.60;;;;;;;1.90;49.85;101790.03;5019116;28;20034;-59
2024/01/21 07:42:55;;;;;;;8.75;7.25;;;;;;;1.91;50.48;101790.88;5013970;28;20029;-59
2024/01/21 07:45:21;;;;;;;8.95;7.63;;;;;;;1.91;50.51;101790.88;5007660;28;20056;-59
2024/01/21 07:47:46;;;;;;;9.68;7.97;;;;;;;1.93;51.36;101797.91;5021044;28;20114;-60
2024/01/21 07:50:11;;;;;;;10.00;7.60;;;;;;;1.94;51.06;101827.00;5021728;28;20048;-60
2024/01/21 07:52:37;;;;;;;8.65;7.28;;;;;;;1.99;50.66;101810.03;5016716;28;20042;-61
2024/01/21 07:55:02;;;;;;;10.95;8.50;;;;;;;1.98;50.30;101830.25;5011094;28;20115;-60
2024/01/21 07:57:27;;;;;;;10.52;8.27;;;;;;;2.01;50.56;101835.38;5014959;28;20030;-61
2024/01/21 07:59:53;;;;;;;9.75;7.60;;;;;;;2.00;50.45;101843.75;5034857;28;20049;-60
2024/01/21 08:02:18;;;;;;;9.77;7.55;;;;;;;1.98;50.03;101838.47;5022585;28;20030;-60
2024/01/21 08:04:43;;;;;;;10.07;7.60;;;;;;;1.99;50.78;101851.13;5022211;28;20125;-61
2024/01/21 08:07:09;;;;;;;10.73;7.70;;;;;;;2.05;50.82;101866.88;5017473;28;20030;-60
2024/01/21 08:09:34;;;;;;;9.95;7.75;;;;;;;2.06;50.63;101882.25;5008730;28;20432;-58
2024/01/21 08:12:00;;;;;;;9.07;7.53;;;;;;;2.10;51.26;101875.41;5011902;28;20036;-58
2024/01/21 08:14:25;;;;;;;9.15;7.65;;;;;;;2.10;50.77;101886.38;5021738;28;20047;-58
2024/01/21 08:16:51;;;;;;;8.57;7.32;;;;;;;2.11;50.67;101900.91;5065152;28;20023;-61
2024/01/21 08:19:17;;;;;;;9.02;7.50;;;;;;;2.15;51.48;101903.13;5044835;28;20034;-60
2024/01/21 08:21:42;;;;;;;9.82;7.28;;;;;;;2.16;51.08;101893.91;5098412;28;20033;-61
2024/01/21 08:24:08;;;;;;;9.18;6.70;;;;;;;2.19;50.80;101909.97;5023182;28;20022;-60
2024/01/21 08:26:34;;;;;;;9.38;7.30;;;;;;;2.23;51.13;101910.47;5018640;28;20432;-62
2024/01/21 08:28:59;;;;;;;9.13;7.18;;;;;;;2.26;51.52;101904.66;5013710;28;20434;-60
2024/01/21 08:31:25;;;;;;;9.40;7.47;;;;;;;2.29;50.50;101903.47;5032158;28;20429;-60
2024/01/21 08:33:50;;;;;;;8.73;7.55;;;;;;;2.28;51.39;101899.00;5013825;28;20049;-60
2024/01/21 08:36:15;;;;;;;9.38;7.25;;;;;;;2.30;51.16;101880.53;5056873;28;20065;-60
2024/01/21 08:38:41;;;;;;;9.80;7.97;;;;;;;2.29;50.57;101878.81;5022095;28;20388;-60
2024/01/21 08:41:06;;;;;;;10.02;7.38;;;;;;;2.28;51.22;101874.34;5007096;28;20030;-60
2024/01/21 08:43:31;;;;;;;12.10;8.38;;;;;;;2.28;51.45;101866.13;5007516;28;20080;-60
2024/01/21 08:45:57;;;;;;;15.05;13.45;;;;;;;2.28;51.36;101857.91;5007744;28;20026;-60
2024/01/21 08:48:22;;;;;;;9.65;7.88;;;;;;;2.28;51.73;101871.59;5008573;28;20054;-60
2024/01/21 08:50:48;;;;;;;9.10;8.05;;;;;;;2.30;52.46;101883.25;5006395;28;20367;-60
2024/01/21 08:53:14;;;;;;;15.23;11.50;;;;;;;2.30;52.16;101894.22;5002792;28;20427;-60
2024/01/21 08:55:39;;;;;;;24.00;16.63;;;;;;;2.31;52.78;101891.28;4998320;28;20018;-60
2024/01/21 08:58:04;;;;;;;14.13;11.60;;;;;;;2.33;53.98;101896.63;5008373;28;20500;-60
2024/01/21 09:00:30;;;;;;;10.70;8.63;;;;;;;2.37;54.38;101906.19;5007378;28;20030;-60
2024/01/21 09:02:55;;;;;;;10.05;7.70;;;;;;;2.38;54.81;101903.28;5007877;28;20038;-60
2024/01/21 09:05:21;;;;;;;11.68;9.38;;;;;;;2.40;54.79;101892.16;5007829;28;20033;-60
2024/01/21 09:07:46;;;;;;;18.23;12.80;;;;;;;2.40;55.14;101892.16;5016380;28;20774;-60
2024/01/21 09:10:12;;;;;;;15.75;11.75;;;;;;;2.40;56.08;101886.69;5010833;28;20389;-60
2024/01/21 09:12:38;;;;;;;22.58;13.32;;;;;;;2.40;56.12;101894.91;5031535;28;20120;-61
2024/01/21 09:15:05;;;;;;;25.08;13.93;;;;;;;2.35;56.77;101900.88;5012324;28;20125;-61
2024/01/21 09:17:30;;;;;;;20.50;11.90;;;;;;;2.37;57.49;101890.63;5008437;28;20069;-60
2024/01/21 09:19:55;;;;;;;15.82;11.60;;;;;;;2.40;58.22;101905.88;5017199;28;20073;-60
2024/01/21 09:22:21;;;;;;;13.85;11.38;;;;;;;2.45;58.26;101922.63;5022753;28;20038;-60
2024/01/21 09:24:47;;;;;;;10.32;8.88;;;;;;;2.41;59.42;101913.91;5007442;28;20116;-60
2024/01/21 09:27:13;;;;;;;11.13;8.25;;;;;;;2.45;58.93;101925.38;5007388;28;20076;-60
2024/01/21 09:29:39;;;;;;;10.57;7.78;;;;;;;2.48;59.16;101919.56;5017418;28;20049;-60
2024/01/21 09:32:04;;;;;;;9.70;7.80;;;;;;;2.51;60.41;101913.69;5053548;28;20055;-60
2024/01/21 09:34:30;;;;;;;10.05;8.05;;;;;;;2.51;61.21;101921.91;5007959;28;20075;-64
2024/01/21 09:36:55;;;;;;;10.20;7.60;;;;;;;2.52;61.09;101934.63;5007094;28;20026;-61
2024/01/21 09:39:20;;;;;;;9.15;7.72;;;;;;;2.54;61.27;101935.28;5007787;28;20037;-60
2024/01/21 09:41:48;;;;;;;9.25;7.50;;;;;;;2.55;61.46;101947.09;5004236;28;20026;-60
2024/01/21 09:44:17;;;;;;;10.77;8.15;;;;;;;2.57;61.76;101950.53;5006586;28;20107;-59
2024/01/21 09:46:42;;;;;;;9.75;7.93;;;;;;;2.57;62.59;101951.38;5046452;28;20108;-60
2024/01/21 09:49:10;;;;;;;10.70;7.93;;;;;;;2.59;63.25;101942.97;5008607;28;20114;-61
2024/01/21 09:51:37;;;;;;;12.30;8.57;;;;;;;2.61;63.15;101941.78;5024386;28;20037;-60
2024/01/21 09:54:04;;;;;;;10.77;8.07;;;;;;;2.62;64.18;101935.25;5007992;28;20022;-60
2024/01/21 09:56:30;;;;;;;12.30;7.78;;;;;;;2.63;64.21;101942.47;5005463;28;20026;-60
2024/01/21 09:58:57;;;;;;;12.27;8.15;;;;;;;2.63;63.80;101936.13;5014629;28;20385;-60
2024/01/21 10:01:22;;;;;;;9.90;7.45;;;;;;;2.60;65.42;101933.75;5010120;28;20037;-61
2024/01/21 10:03:49;;;;;;;10.07;7.55;;;;;;;2.62;65.14;101942.63;4998775;28;20034;-61
2024/01/21 10:06:16;;;;;;;11.45;8.60;;;;;;;2.63;65.45;101938.84;5002890;28;20075;-61
2024/01/21 10:08:44;;;;;;;12.07;10.13;;;;;;;2.64;65.88;101933.22;5011435;28;20034;-61
2024/01/21 10:11:10;;;;;;;13.30;9.90;;;;;;;2.67;65.62;101932.00;5010312;28;20056;-61
2024/01/21 10:13:38;;;;;;;10.05;8.68;;;;;;;2.67;65.49;101941.09;5011559;28;20062;-61
2024/01/21 10:16:07;;;;;;;10.10;9.00;;;;;;;2.67;66.51;101937.47;5010568;28;20561;-61
2024/01/21 10:18:32;;;;;;;11.95;9.18;;;;;;;2.67;66.82;101942.97;5010487;28;20416;-61
2024/01/21 10:20:59;;;;;;;11.05;9.95;;;;;;;2.68;66.97;101934.56;5072511;28;20027;-61
2024/01/21 10:23:24;;;;;;;10.70;8.73;;;;;;;2.68;67.69;101926.34;4999717;28;20401;-61
2024/01/21 10:25:50;;;;;;;15.30;8.77;;;;;;;2.69;67.87;101927.19;5010820;28;20026;-61
2024/01/21 10:28:17;;;;;;;10.55;8.40;;;;;;;2.67;68.61;101919.16;5011256;28;20030;-61
2024/01/21 10:30:44;;;;;;;10.10;8.13;;;;;;;2.65;68.65;101918.47;5010033;28;20037;-61
2024/01/21 10:33:13;;;;;;;11.82;8.95;;;;;;;2.66;68.00;101920.19;5030968;28;20021;-62
2024/01/21 10:35:39;;;;;;;9.75;7.63;;;;;;;2.68;68.75;101896.19;5022663;28;20090;-61
2024/01/21 10:38:12;;;;;;;9.98;8.30;;;;;;;2.74;68.19;101902.00;5011309;28;20025;-61
2024/01/21 10:40:44;;;;;;;10.57;7.80;;;;;;;2.73;68.99;101898.41;5010073;28;20034;-60
2024/01/21 10:43:14;;;;;;;11.17;8.40;;;;;;;2.70;68.90;101885.91;5010744;28;20057;-61
2024/01/21 10:45:42;;;;;;;12.98;8.85;;;;;;;2.72;68.40;101879.41;5009844;28;20281;-59
2024/01/21 10:48:08;;;;;;;11.13;8.50;;;;;;;2.75;68.95;101881.78;5010798;28;20436;-60
2024/01/21 10:50:34;;;;;;;10.65;8.13;;;;;;;2.76;68.85;101878.88;5011313;28;20417;-62
2024/01/21 10:53:01;;;;;;;11.52;8.55;;;;;;;2.75;68.33;101877.16;5002275;28;20409;-61
2024/01/21 10:55:28;;;;;;;10.40;8.50;;;;;;;2.75;68.92;101877.16;5000316;28;20034;-61
2024/01/21 10:57:54;;;;;;;9.95;8.45;;;;;;;2.82;68.05;101878.16;5010131;28;20075;-61
2024/01/21 11:00:19;;;;;;;9.65;8.30;;;;;;;2.88;68.46;101874.72;5008485;28;20113;-60
2024/01/21 11:03:20;;;;;;;10.10;7.93;;;;;;;2.96;67.44;101887.53;5011284;28;20032;-61
2024/01/21 11:05:46;;;;;;;12.02;8.70;;;;;;;3.00;67.40;101872.44;5010055;28;20053;-61
2024/01/21 11:08:12;;;;;;;9.88;7.55;;;;;;;3.04;67.12;101857.31;5011009;28;20121;-61
2024/01/21 11:10:38;;;;;;;9.50;8.00;;;;;;;3.09;66.82;101857.63;5007987;28;20465;-61
2024/01/21 11:13:06;;;;;;;10.40;8.00;;;;;;;3.08;66.89;101861.41;5011995;28;20083;-61
2024/01/21 11:15:31;;;;;;;11.18;8.30;;;;;;;3.12;66.71;101860.03;5006737;28;20025;-61
2024/01/21 11:18:08;;;;;;;9.80;7.88;;;;;;;3.20;66.97;101873.69;5008867;28;20762;-62
2024/01/21 11:20:34;;;;;;;9.60;7.93;;;;;;;3.25;66.78;101903.34;5009108;28;20030;-61